Time;durP1;ratioP1;P1;durP2;ratioP2;P2;SDS_P1;SDS_P2;PMS_P1;PMS_P2;Temp;Humidity;BMP_temperature;BMP_pressure;BME280_temperature;BME280_humidity;BME280_pressure;Samples;Min_cycle;Max_cycle;Signal;HPM_P1;HPM_P2
2021/08/23 00:02:25;;;;;;;10.75;7.53;;;;;;;19.35;66.00;95359.00;5068501;28;20048;-66
2021/08/23 00:04:52;;;;;;;10.15;8.07;;;;;;;19.23;66.71;95357.47;5068740;28;20040;-66
2021/08/23 00:07:19;;;;;;;11.32;7.82;;;;;;;19.07;67.54;95364.69;5068935;28;20025;-66
2021/08/23 00:09:47;;;;;;;9.18;6.95;;;;;;;19.01;67.73;95367.59;5068653;28;20114;-65
2021/08/23 00:12:14;;;;;;;7.63;6.75;;;;;;;18.90;67.96;95365.00;5068692;28;20032;-66
2021/08/23 00:14:41;;;;;;;8.30;6.72;;;;;;;18.76;68.52;95368.47;5068622;28;20544;-66
2021/08/23 00:17:07;;;;;;;11.18;7.55;;;;;;;18.69;68.28;95368.75;5050483;28;20082;-66
2021/08/23 00:19:34;;;;;;;8.30;7.07;;;;;;;18.68;68.61;95364.53;5068595;28;20040;-66
2021/08/23 00:22:20;;;;;;;9.25;7.25;;;;;;;18.62;68.50;95365.59;5068483;28;20036;-66
2021/08/23 00:24:51;;;;;;;10.80;7.97;;;;;;;18.49;69.04;95354.56;5067903;28;20040;-66
2021/08/23 00:27:18;;;;;;;8.85;7.22;;;;;;;18.59;68.81;95363.50;5068579;28;20398;-66
2021/08/23 00:29:47;;;;;;;12.43;7.13;;;;;;;18.45;69.74;95358.78;5067730;28;20044;-66
2021/08/23 00:32:15;;;;;;;10.18;7.20;;;;;;;18.19;70.47;95359.91;5068256;28;20048;-66
2021/08/23 00:34:42;;;;;;;9.70;7.50;;;;;;;18.15;71.13;95370.97;5068256;28;20505;-66
2021/08/23 00:37:09;;;;;;;11.45;7.50;;;;;;;18.12;71.99;95371.50;5067329;28;20044;-66
2021/08/23 00:39:37;;;;;;;11.32;7.03;;;;;;;18.11;71.92;95364.66;5066403;28;20072;-66
2021/08/23 00:42:05;;;;;;;13.65;7.55;;;;;;;18.13;72.25;95367.81;5067069;28;20059;-66
2021/08/23 00:44:36;;;;;;;11.68;7.05;;;;;;;18.18;72.11;95363.59;5068104;28;20803;-66
2021/08/23 00:47:07;;;;;;;11.77;7.50;;;;;;;18.12;72.21;95357.53;5066938;28;20091;-66
2021/08/23 00:49:34;;;;;;;10.60;8.00;;;;;;;18.19;72.29;95370.44;5067417;28;20040;-66
2021/08/23 00:52:05;;;;;;;7.82;7.03;;;;;;;18.07;73.01;95353.03;5068010;28;20553;-65
2021/08/23 00:54:34;;;;;;;9.00;7.72;;;;;;;18.02;73.33;95358.31;5067766;28;20044;-65
2021/08/23 00:57:03;;;;;;;9.13;7.70;;;;;;;18.00;73.78;95362.28;5067177;28;20045;-66
2021/08/23 00:59:32;;;;;;;11.80;7.72;;;;;;;18.08;73.59;95365.19;5067410;28;20105;-66
2021/08/23 01:02:17;;;;;;;9.38;8.10;;;;;;;18.04;73.73;95353.59;5067569;28;20044;-66
2021/08/23 01:04:51;;;;;;;9.50;7.55;;;;;;;17.96;73.33;95354.13;5067682;28;20571;-66
2021/08/23 01:07:23;;;;;;;8.93;7.40;;;;;;;17.94;73.94;95351.75;5066732;28;20028;-65
2021/08/23 01:10:07;;;;;;;8.30;7.30;;;;;;;17.85;73.67;95336.69;5067727;28;20037;-65
2021/08/23 01:12:35;;;;;;;9.93;8.03;;;;;;;17.85;73.48;95339.34;5067453;28;20040;-66
2021/08/23 01:15:03;;;;;;;10.75;8.43;;;;;;;17.90;73.79;95349.91;5067572;28;20043;-66
2021/08/23 01:17:30;;;;;;;12.32;7.65;;;;;;;17.86;73.76;95343.56;5067951;28;20051;-66
2021/08/23 01:20:01;;;;;;;9.40;7.13;;;;;;;17.83;73.53;95336.19;5067631;28;20055;-66
2021/08/23 01:22:37;;;;;;;7.70;6.90;;;;;;;17.75;74.15;95346.19;5067047;28;20044;-65
2021/08/23 01:25:06;;;;;;;10.65;7.18;;;;;;;17.77;74.33;95344.09;5067429;28;20048;-65
2021/08/23 01:27:36;;;;;;;15.57;7.75;;;;;;;17.77;74.38;95341.44;5067281;28;20107;-65
2021/08/23 01:30:08;;;;;;;15.52;7.32;;;;;;;17.70;74.79;95343.56;5065910;28;20048;-66
2021/08/23 01:32:35;;;;;;;11.10;7.55;;;;;;;17.57;74.77;95344.06;5067308;28;20769;-66
2021/08/23 01:35:05;;;;;;;12.68;8.05;;;;;;;17.52;74.96;95336.16;5067343;28;20066;-66
2021/08/23 01:37:34;;;;;;;10.95;8.23;;;;;;;17.55;75.19;95335.63;5066786;28;20048;-66
2021/08/23 01:40:02;;;;;;;12.32;7.95;;;;;;;17.50;75.20;95339.06;5049142;28;20117;-65
2021/08/23 01:42:31;;;;;;;12.02;8.40;;;;;;;17.42;75.38;95338.78;5067206;28;20041;-66
2021/08/23 01:44:58;;;;;;;12.07;8.63;;;;;;;17.27;75.57;95339.53;5066767;28;20045;-65
2021/08/23 01:47:25;;;;;;;12.32;7.13;;;;;;;17.24;75.79;95334.81;5065374;28;20390;-65
2021/08/23 01:49:51;;;;;;;11.85;7.90;;;;;;;17.29;75.39;95332.97;5066637;28;20049;-66
2021/08/23 01:52:18;;;;;;;13.07;8.52;;;;;;;17.29;75.62;95338.22;5066680;28;20043;-66
2021/08/23 01:54:45;;;;;;;12.65;8.07;;;;;;;17.29;75.73;95332.97;5066809;28;20044;-66
2021/08/23 01:57:15;;;;;;;12.15;8.10;;;;;;;17.25;75.48;95331.91;5066605;28;20040;-66
2021/08/23 01:59:42;;;;;;;11.07;8.55;;;;;;;17.20;76.11;95324.00;5066588;28;20527;-65
2021/08/23 02:02:09;;;;;;;9.35;8.43;;;;;;;17.07;76.42;95329.75;5066532;28;20052;-66
2021/08/23 02:04:35;;;;;;;16.13;7.97;;;;;;;16.93;76.87;95314.47;5066345;28;20127;-66
2021/08/23 02:07:03;;;;;;;14.80;9.25;;;;;;;16.99;76.49;95328.41;5066505;28;20049;-66
2021/08/23 02:09:29;;;;;;;20.92;10.38;;;;;;;16.96;76.45;95335.00;5066674;28;20093;-66
2021/08/23 02:11:56;;;;;;;10.85;8.57;;;;;;;16.94;77.09;95331.03;5065430;28;20236;-66
2021/08/23 02:14:23;;;;;;;11.45;9.20;;;;;;;16.90;77.05;95328.13;5066697;28;20044;-66
2021/08/23 02:16:50;;;;;;;11.65;8.30;;;;;;;16.89;77.22;95338.91;5065659;28;21169;-65
2021/08/23 02:19:17;;;;;;;10.63;8.50;;;;;;;16.86;77.54;95334.97;5066025;28;20037;-66
2021/08/23 02:21:53;;;;;;;14.88;8.70;;;;;;;16.93;76.64;95335.50;5066680;28;20037;-66
2021/08/23 02:24:22;;;;;;;10.52;7.85;;;;;;;16.97;76.05;95325.25;5065528;28;20827;-66
2021/08/23 02:26:50;;;;;;;16.60;9.35;;;;;;;17.07;75.69;95333.19;5066450;28;20055;-66
2021/08/23 02:29:17;;;;;;;11.00;8.48;;;;;;;17.09;75.13;95330.31;5066351;28;20048;-66
2021/08/23 02:31:44;;;;;;;11.13;8.73;;;;;;;17.06;75.42;95322.91;5065897;28;20100;-65
2021/08/23 02:34:11;;;;;;;13.57;8.55;;;;;;;17.04;75.63;95323.19;5065472;28;20044;-66
2021/08/23 02:36:37;;;;;;;14.50;8.73;;;;;;;17.04;76.00;95325.81;5066883;28;20041;-66
2021/08/23 02:39:05;;;;;;;12.13;9.38;;;;;;;16.80;76.88;95304.41;5066043;28;20044;-65
2021/08/23 02:41:32;;;;;;;11.95;9.18;;;;;;;16.72;77.86;95297.00;5065300;28;20045;-65
2021/08/23 02:43:59;;;;;;;9.77;8.38;;;;;;;16.74;78.43;95318.56;5066290;28;20044;-65
2021/08/23 02:46:26;;;;;;;14.73;9.43;;;;;;;16.62;78.54;95303.81;5065816;28;20572;-66
2021/08/23 02:48:53;;;;;;;14.13;8.50;;;;;;;16.52;79.38;95306.38;5064980;28;20398;-65
2021/08/23 02:51:20;;;;;;;11.70;9.32;;;;;;;16.42;80.18;95314.22;5066105;28;20426;-65
2021/08/23 02:53:47;;;;;;;14.32;9.00;;;;;;;16.42;80.06;95304.50;5066000;28;20068;-65
2021/08/23 02:56:13;;;;;;;13.68;9.43;;;;;;;16.40;80.50;95301.34;5065804;28;20044;-65
2021/08/23 02:58:40;;;;;;;36.85;9.20;;;;;;;16.36;80.29;95304.72;5066205;28;20041;-66
2021/08/23 03:01:07;;;;;;;15.45;9.50;;;;;;;16.37;81.05;95308.97;5066426;28;20044;-65
2021/08/23 03:03:37;;;;;;;14.02;9.00;;;;;;;16.41;81.04;95312.66;5069289;28;20153;-65
2021/08/23 03:06:04;;;;;;;14.15;9.82;;;;;;;16.34;81.21;95312.09;5069823;28;20044;-65
2021/08/23 03:08:31;;;;;;;12.93;9.07;;;;;;;16.37;80.87;95311.59;5070151;28;20045;-65
2021/08/23 03:11:06;;;;;;;11.38;9.25;;;;;;;16.46;80.53;95314.50;5070083;28;20038;-65
2021/08/23 03:13:33;;;;;;;13.60;9.02;;;;;;;16.38;81.05;95313.16;5069716;28;20074;-65
2021/08/23 03:16:00;;;;;;;10.77;8.65;;;;;;;16.48;80.30;95318.47;5069174;28;20051;-65
2021/08/23 03:18:27;;;;;;;10.15;9.05;;;;;;;16.45;80.77;95318.97;5069263;28;20040;-65
2021/08/23 03:20:54;;;;;;;19.20;10.73;;;;;;;16.45;80.25;95308.44;5068971;28;20051;-65
2021/08/23 03:23:21;;;;;;;16.65;9.63;;;;;;;16.50;80.15;95316.38;5069121;28;20044;-65
2021/08/23 03:25:47;;;;;;;22.92;9.05;;;;;;;16.45;80.92;95316.34;5068736;28;20040;-65
2021/08/23 03:28:14;;;;;;;15.05;8.85;;;;;;;16.38;80.67;95302.63;5069276;28;20040;-65
2021/08/23 03:30:41;;;;;;;18.15;9.23;;;;;;;16.48;80.83;95312.44;5069375;28;20109;-65
2021/08/23 03:33:08;;;;;;;15.68;9.77;;;;;;;16.47;81.14;95311.63;5069933;28;20048;-66
2021/08/23 03:35:35;;;;;;;18.00;10.85;;;;;;;16.48;80.62;95312.44;5068775;28;20048;-66
2021/08/23 03:38:02;;;;;;;17.20;10.02;;;;;;;16.47;80.79;95310.84;5070132;28;20043;-66
2021/08/23 03:40:30;;;;;;;15.60;9.32;;;;;;;16.42;81.13;95309.78;5069646;28;20040;-65
2021/08/23 03:42:57;;;;;;;16.20;10.10;;;;;;;16.49;80.86;95314.78;5069749;28;20059;-65
2021/08/23 03:45:23;;;;;;;15.80;10.18;;;;;;;16.45;81.48;95313.72;5069446;28;20060;-66
2021/08/23 03:47:50;;;;;;;12.57;9.90;;;;;;;16.39;81.14;95314.75;5068793;28;20094;-65
2021/08/23 03:50:18;;;;;;;18.17;9.65;;;;;;;16.48;80.64;95318.47;5069421;28;20476;-66
2021/08/23 03:52:44;;;;;;;18.95;9.45;;;;;;;16.47;81.12;95311.63;5068317;28;21950;-65
2021/08/23 03:55:11;;;;;;;16.42;9.48;;;;;;;16.55;80.91;95319.03;5067896;28;20121;-65
2021/08/23 03:57:38;;;;;;;22.05;9.15;;;;;;;16.56;80.39;95325.06;5068290;28;20590;-65
2021/08/23 04:00:08;;;;;;;15.30;8.60;;;;;;;16.55;81.01;95323.50;5069638;28;20052;-66
2021/08/23 04:02:36;;;;;;;17.38;9.98;;;;;;;16.58;80.14;95326.41;5068957;28;20040;-66
2021/08/23 04:05:03;;;;;;;22.77;9.25;;;;;;;16.65;80.40;95333.25;5069298;28;20041;-66
2021/08/23 04:07:30;;;;;;;11.95;9.00;;;;;;;16.67;80.26;95334.56;5069351;28;22093;-66
2021/08/23 04:09:57;;;;;;;13.00;9.63;;;;;;;16.70;80.60;95335.91;5069358;28;20133;-66
2021/08/23 04:12:24;;;;;;;15.23;9.35;;;;;;;16.63;81.12;95331.66;5067530;28;20048;-66
2021/08/23 04:14:50;;;;;;;17.00;9.45;;;;;;;16.59;81.48;95325.34;5069137;28;20040;-66
2021/08/23 04:17:17;;;;;;;13.38;10.13;;;;;;;16.66;81.42;95334.84;5068854;28;20037;-65
2021/08/23 04:19:44;;;;;;;17.10;11.40;;;;;;;16.62;81.53;95330.09;5069060;28;20529;-66
2021/08/23 04:22:11;;;;;;;19.98;11.18;;;;;;;16.57;81.94;95322.19;5068323;28;20432;-66
2021/08/23 04:24:39;;;;;;;20.48;11.73;;;;;;;16.65;81.33;95322.75;5068729;28;20040;-65
2021/08/23 04:27:06;;;;;;;14.18;10.80;;;;;;;16.46;82.76;95312.69;5068829;28;20044;-65
2021/08/23 04:29:33;;;;;;;15.57;10.27;;;;;;;16.57;82.92;95322.19;5068875;28;20036;-65
2021/08/23 04:32:00;;;;;;;14.23;9.60;;;;;;;16.59;82.71;95325.34;5066906;28;20121;-66
2021/08/23 04:34:26;;;;;;;33.83;10.13;;;;;;;16.65;82.93;95323.53;5068915;28;20055;-66
2021/08/23 04:36:53;;;;;;;16.50;9.23;;;;;;;16.71;83.07;95332.22;5066873;28;20044;-65
2021/08/23 04:39:20;;;;;;;11.70;9.27;;;;;;;16.76;82.50;95329.63;5068392;28;20029;-66
2021/08/23 04:41:47;;;;;;;14.30;9.70;;;;;;;16.74;82.68;95321.19;5068447;28;20037;-66
2021/08/23 04:44:13;;;;;;;18.95;10.85;;;;;;;16.73;82.58;95317.78;5068273;28;20055;-66
2021/08/23 04:46:40;;;;;;;14.30;9.18;;;;;;;16.77;82.56;95332.00;5068387;28;20425;-63
2021/08/23 04:49:07;;;;;;;10.82;9.02;;;;;;;16.79;83.08;95339.63;5066731;28;20041;-63
2021/08/23 04:51:34;;;;;;;13.68;9.70;;;;;;;16.87;82.76;95331.28;5067836;28;20105;-64
2021/08/23 04:54:00;;;;;;;10.20;8.73;;;;;;;16.90;82.76;95337.88;5067977;28;20041;-66
2021/08/23 04:56:27;;;;;;;14.93;9.35;;;;;;;16.97;82.14;95331.31;5067489;28;20048;-66
2021/08/23 04:58:54;;;;;;;11.75;9.18;;;;;;;16.97;82.38;95315.53;5066992;28;20102;-66
2021/08/23 05:01:20;;;;;;;12.88;9.57;;;;;;;17.12;81.52;95325.28;5066687;28;20044;-66
2021/08/23 05:03:47;;;;;;;13.15;9.23;;;;;;;17.24;80.85;95325.06;5067751;28;20048;-66
2021/08/23 05:06:14;;;;;;;12.82;9.82;;;;;;;17.29;80.69;95322.44;5067509;28;20052;-66
2021/08/23 05:08:41;;;;;;;22.50;8.98;;;;;;;17.47;79.83;95329.03;5066635;28;22860;-66
2021/08/23 05:11:08;;;;;;;16.90;8.73;;;;;;;17.59;79.29;95326.13;5066556;28;20494;-66
2021/08/23 05:13:35;;;;;;;22.65;7.97;;;;;;;17.68;77.61;95329.84;5064837;28;20505;-66
2021/08/23 05:16:02;;;;;;;10.15;7.57;;;;;;;17.82;76.51;95329.31;5066642;28;20041;-66
2021/08/23 05:18:29;;;;;;;10.35;8.18;;;;;;;17.89;76.19;95319.34;5066940;28;20098;-66
2021/08/23 05:21:02;;;;;;;12.57;8.52;;;;;;;18.03;75.52;95330.91;5067660;28;20040;-66
2021/08/23 05:23:30;;;;;;;13.65;9.02;;;;;;;18.02;75.40;95313.50;5067453;28;20472;-65
2021/08/23 05:25:57;;;;;;;10.93;8.60;;;;;;;18.18;75.46;95318.78;5066347;28;20044;-66
2021/08/23 05:28:26;;;;;;;8.35;7.50;;;;;;;18.26;74.64;95319.03;5067524;28;20036;-63
2021/08/23 05:30:54;;;;;;;12.98;8.40;;;;;;;18.38;74.68;95321.34;5063767;28;20493;-63
2021/08/23 05:33:20;;;;;;;13.55;7.65;;;;;;;18.48;73.91;95321.34;5066391;28;20480;-63
2021/08/23 05:35:47;;;;;;;11.35;7.25;;;;;;;18.56;73.49;95327.88;5066149;28;20032;-65
2021/08/23 05:38:14;;;;;;;11.35;7.35;;;;;;;18.68;72.38;95324.97;5066234;28;20098;-65
2021/08/23 05:40:41;;;;;;;8.20;6.90;;;;;;;18.75;72.31;95316.78;5066051;28;20054;-65
2021/08/23 05:43:07;;;;;;;10.55;6.03;;;;;;;18.87;72.22;95323.34;5065394;28;20145;-65
2021/08/23 05:45:34;;;;;;;11.52;6.53;;;;;;;19.01;71.71;95317.44;5064698;28;20060;-65
2021/08/23 05:48:01;;;;;;;10.20;6.03;;;;;;;19.08;71.18;95307.38;5065593;28;20399;-65
2021/08/23 05:50:28;;;;;;;9.15;6.88;;;;;;;19.26;70.79;95319.16;5067380;28;20040;-63
2021/08/23 05:52:55;;;;;;;7.95;6.28;;;;;;;19.32;68.11;95317.28;5066946;28;20056;-62
2021/08/23 05:55:21;;;;;;;9.20;5.95;;;;;;;19.45;69.53;95316.69;5066846;28;20044;-63
2021/08/23 05:57:48;;;;;;;12.10;6.60;;;;;;;19.55;69.88;95327.16;5066852;28;20063;-64
2021/08/23 06:00:17;;;;;;;9.82;6.65;;;;;;;19.65;69.68;95318.38;5064910;28;20040;-63
2021/08/23 06:02:45;;;;;;;10.35;6.72;;;;;;;19.64;69.11;95309.66;5066347;28;20059;-63
2021/08/23 06:05:12;;;;;;;7.57;6.50;;;;;;;19.71;66.83;95325.19;5066708;28;20036;-63
2021/08/23 06:07:40;;;;;;;10.23;6.68;;;;;;;19.87;66.68;95328.53;5066858;28;20044;-62
2021/08/23 06:10:10;;;;;;;8.30;6.15;;;;;;;19.86;66.29;95308.44;5066925;28;20044;-62
2021/08/23 06:12:37;;;;;;;13.27;6.72;;;;;;;19.95;66.10;95314.72;5067147;28;20048;-63
2021/08/23 06:15:05;;;;;;;9.15;6.22;;;;;;;20.03;65.43;95306.19;5065786;28;20056;-63
2021/08/23 06:17:31;;;;;;;8.80;5.80;;;;;;;20.19;66.30;95320.03;5067330;28;20048;-63
2021/08/23 06:19:58;;;;;;;7.10;5.78;;;;;;;20.21;64.17;95317.13;5067098;28;20041;-63
2021/08/23 06:22:25;;;;;;;8.73;5.47;;;;;;;20.22;63.95;95314.19;5067073;28;20047;-63
2021/08/23 06:24:52;;;;;;;11.93;5.90;;;;;;;20.38;65.88;95314.03;5067182;28;20036;-63
2021/08/23 06:27:19;;;;;;;7.35;6.20;;;;;;;20.48;64.46;95316.56;5063399;28;20056;-63
2021/08/23 06:29:46;;;;;;;8.18;6.00;;;;;;;20.58;63.98;95308.53;5066710;28;20871;-64
2021/08/23 06:32:13;;;;;;;7.68;6.30;;;;;;;20.61;63.45;95315.13;5066689;28;20044;-63
2021/08/23 06:34:39;;;;;;;7.22;5.75;;;;;;;20.78;64.02;95304.09;5066764;28;20040;-63
2021/08/23 06:37:06;;;;;;;10.65;6.07;;;;;;;20.90;64.60;95308.97;5066512;28;20157;-63
2021/08/23 06:39:33;;;;;;;8.77;5.70;;;;;;;21.01;63.06;95313.03;5066958;28;20552;-64
2021/08/23 06:42:01;;;;;;;6.18;5.50;;;;;;;21.19;63.28;95314.94;5066599;28;20040;-63
2021/08/23 06:44:27;;;;;;;10.88;5.63;;;;;;;21.22;61.13;95318.09;5066793;28;20040;-63
2021/08/23 06:46:54;;;;;;;11.60;6.10;;;;;;;21.32;62.34;95313.44;5066544;28;20044;-63
2021/08/23 06:49:21;;;;;;;7.43;5.85;;;;;;;21.52;61.33;95328.28;5065275;28;20508;-64
2021/08/23 06:51:48;;;;;;;9.75;6.07;;;;;;;21.62;59.61;95315.94;5066551;28;20094;-63
2021/08/23 06:54:17;;;;;;;9.35;6.05;;;;;;;21.69;59.82;95311.06;5066426;28;20457;-64
2021/08/23 06:56:44;;;;;;;8.63;5.88;;;;;;;21.83;59.45;95317.19;5065612;28;20090;-64
2021/08/23 06:59:11;;;;;;;7.88;6.00;;;;;;;21.88;59.64;95303.84;5066489;28;20049;-63
2021/08/23 07:01:38;;;;;;;8.00;6.00;;;;;;;22.14;56.66;95311.38;5066363;28;20048;-63
2021/08/23 07:04:07;;;;;;;7.00;6.15;;;;;;;22.24;58.14;95305.88;5066399;28;20044;-63
2021/08/23 07:06:35;;;;;;;6.93;5.35;;;;;;;22.38;56.10;95315.75;5066444;28;20070;-64
2021/08/23 07:09:02;;;;;;;11.43;5.65;;;;;;;22.51;55.88;95305.13;5066351;28;20068;-63
2021/08/23 07:11:29;;;;;;;6.97;5.45;;;;;;;22.59;55.77;95306.31;5066384;28;20048;-63
2021/08/23 07:13:55;;;;;;;11.68;5.45;;;;;;;22.78;53.92;95302.75;5065308;28;20048;-63
2021/08/23 07:16:22;;;;;;;6.68;5.68;;;;;;;22.94;53.47;95296.06;5065151;28;20047;-63
2021/08/23 07:18:49;;;;;;;7.25;5.18;;;;;;;23.18;54.15;95289.75;5066278;28;20055;-64
2021/08/23 07:21:16;;;;;;;7.20;5.00;;;;;;;23.45;52.21;95294.97;5066162;28;20056;-64
2021/08/23 07:23:43;;;;;;;6.43;4.93;;;;;;;23.47;50.08;95292.78;5066271;28;20449;-63
2021/08/23 07:26:10;;;;;;;10.23;5.65;;;;;;;23.45;49.55;95289.66;5066179;28;20044;-63
2021/08/23 07:28:36;;;;;;;6.78;4.60;;;;;;;23.69;49.28;95288.56;5066163;28;20041;-63
2021/08/23 07:31:03;;;;;;;5.88;4.60;;;;;;;23.72;48.39;95279.97;5065776;28;20098;-63
2021/08/23 07:33:31;;;;;;;8.77;5.35;;;;;;;23.84;47.08;95285.56;5066131;28;20097;-64
2021/08/23 07:35:58;;;;;;;7.13;4.68;;;;;;;23.93;48.66;95271.50;5064973;28;20494;-63
2021/08/23 07:38:25;;;;;;;14.98;5.22;;;;;;;24.05;46.78;95269.06;5065986;28;20051;-63
2021/08/23 07:40:53;;;;;;;10.77;5.00;;;;;;;24.15;48.31;95252.06;5065504;28;20032;-63
2021/08/23 07:43:20;;;;;;;5.53;4.47;;;;;;;24.41;47.48;95281.44;5065805;28;20045;-64
2021/08/23 07:45:47;;;;;;;8.27;4.47;;;;;;;24.54;46.66;95277.91;5066063;28;20131;-63
2021/08/23 07:48:15;;;;;;;7.97;4.95;;;;;;;24.65;47.15;95274.97;5067632;28;20036;-64
2021/08/23 07:50:42;;;;;;;10.80;4.80;;;;;;;24.67;46.05;95278.91;5069232;28;20047;-63
2021/08/23 07:53:11;;;;;;;6.93;4.63;;;;;;;24.73;45.76;95277.66;5068528;28;20048;-64
2021/08/23 07:55:38;;;;;;;7.13;4.50;;;;;;;24.86;47.43;95275.94;5069670;28;20036;-63
2021/08/23 07:58:05;;;;;;;10.52;4.82;;;;;;;25.15;47.10;95282.56;5069362;28;20033;-63
2021/08/23 08:00:32;;;;;;;7.50;4.65;;;;;;;25.28;45.14;95281.66;5050720;28;20543;-63
2021/08/23 08:02:59;;;;;;;10.35;6.25;;;;;;;25.21;45.53;95275.19;5051716;28;20045;-64
2021/08/23 08:05:26;;;;;;;9.32;5.20;;;;;;;25.37;44.66;95274.47;5069469;28;20043;-64
2021/08/23 08:07:52;;;;;;;8.48;5.00;;;;;;;25.58;44.71;95278.34;5069339;28;20040;-64
2021/08/23 08:10:20;;;;;;;10.32;5.80;;;;;;;25.80;44.50;95274.72;5067745;28;20449;-64
2021/08/23 08:12:47;;;;;;;8.77;4.97;;;;;;;25.84;43.04;95278.31;5069128;28;20044;-63
2021/08/23 08:15:14;;;;;;;6.65;5.45;;;;;;;26.08;42.78;95280.47;5068849;28;20052;-63
2021/08/23 08:17:41;;;;;;;6.15;4.90;;;;;;;26.19;43.72;95275.56;5068387;28;20045;-64
2021/08/23 08:20:09;;;;;;;8.27;4.75;;;;;;;26.33;41.85;95268.16;5068749;28;20422;-64
2021/08/23 08:22:37;;;;;;;16.70;5.07;;;;;;;26.44;41.59;95263.22;5068845;28;20036;-64
2021/08/23 08:25:04;;;;;;;5.05;4.18;;;;;;;26.46;40.68;95264.47;5068180;28;20056;-64
2021/08/23 08:27:31;;;;;;;5.07;4.57;;;;;;;26.65;41.33;95268.63;5067902;28;20048;-64
2021/08/23 08:29:58;;;;;;;7.03;4.80;;;;;;;26.77;41.14;95265.28;5068547;28;20056;-64
2021/08/23 08:32:25;;;;;;;5.57;4.40;;;;;;;26.96;41.38;95256.84;5068004;28;20045;-65
2021/08/23 08:34:51;;;;;;;7.70;4.63;;;;;;;27.11;39.72;95256.25;5068358;28;20036;-67
2021/08/23 08:37:19;;;;;;;7.43;4.53;;;;;;;27.31;39.76;95267.28;5068268;28;20114;-67
2021/08/23 08:39:46;;;;;;;6.05;4.18;;;;;;;27.26;38.88;95253.00;5067650;28;20525;-67
2021/08/23 08:42:16;;;;;;;7.10;5.28;;;;;;;27.17;37.55;95254.94;5067932;28;20054;-64
2021/08/23 08:44:43;;;;;;;6.32;4.85;;;;;;;27.45;37.46;95244.50;5067139;28;20051;-64
2021/08/23 08:47:15;;;;;;;7.22;5.32;;;;;;;27.51;38.39;95250.41;5068240;28;20049;-64
2021/08/23 08:49:43;;;;;;;5.97;4.80;;;;;;;27.82;39.62;95251.84;5065948;28;20037;-64
2021/08/23 08:52:11;;;;;;;7.32;5.13;;;;;;;27.84;35.70;95260.34;5050003;28;20044;-65
2021/08/23 08:54:39;;;;;;;6.90;5.18;;;;;;;28.08;35.16;95242.81;5068059;28;20047;-65
2021/08/23 08:57:07;;;;;;;6.60;4.63;;;;;;;28.27;37.76;95251.09;5067680;28;20042;-65
2021/08/23 08:59:34;;;;;;;5.82;4.65;;;;;;;28.41;36.35;95235.47;5065888;28;20122;-65
2021/08/23 09:02:02;;;;;;;9.45;5.82;;;;;;;28.57;37.80;95250.88;5068060;28;20044;-64
2021/08/23 09:04:37;;;;;;;7.53;4.75;;;;;;;28.55;34.06;95242.41;5068122;28;20047;-65
2021/08/23 09:07:09;;;;;;;8.40;4.88;;;;;;;28.63;36.59;95246.88;5067000;28;20041;-65
2021/08/23 09:09:37;;;;;;;4.60;4.20;;;;;;;28.69;34.69;95242.84;5068243;28;20036;-65
2021/08/23 09:12:12;;;;;;;5.07;4.30;;;;;;;28.53;34.64;95231.22;5066515;28;20574;-65
2021/08/23 09:15:02;;;;;;;4.88;4.43;;;;;;;28.76;36.14;95240.38;5066496;28;20061;-64
2021/08/23 09:17:29;;;;;;;11.25;4.25;;;;;;;29.11;35.03;95234.47;5067927;28;20068;-65
2021/08/23 09:19:58;;;;;;;5.47;4.85;;;;;;;29.38;33.40;95232.19;5067723;28;20029;-66
2021/08/23 09:22:25;;;;;;;4.47;4.00;;;;;;;29.78;32.00;95234.00;5067449;28;20533;-65
2021/08/23 09:24:52;;;;;;;7.20;3.97;;;;;;;29.69;32.54;95230.69;5066437;28;20436;-66
2021/08/23 09:27:19;;;;;;;6.80;3.90;;;;;;;29.68;33.77;95229.91;5066207;28;20047;-65
2021/08/23 09:29:55;;;;;;;9.30;4.70;;;;;;;29.70;32.37;95221.53;5067805;28;20440;-65
2021/08/23 09:32:30;;;;;;;6.43;4.57;;;;;;;29.65;31.78;95224.44;5067226;28;20044;-65
2021/08/23 09:34:58;;;;;;;6.78;5.00;;;;;;;29.47;33.34;95224.75;5066373;28;20045;-64
2021/08/23 09:37:31;;;;;;;6.38;4.50;;;;;;;29.79;33.21;95219.47;5067362;28;20540;-65
2021/08/23 09:40:08;;;;;;;7.95;3.92;;;;;;;30.12;29.94;95215.69;5065723;28;20509;-65
2021/08/23 09:42:35;;;;;;;7.85;3.80;;;;;;;30.27;31.84;95204.16;5065839;28;20052;-64
2021/08/23 09:45:03;;;;;;;5.20;4.18;;;;;;;30.27;30.01;95206.84;5066741;28;20048;-64
2021/08/23 09:47:30;;;;;;;8.43;4.30;;;;;;;30.30;30.07;95211.50;5066955;28;20049;-64
2021/08/23 09:49:57;;;;;;;7.97;4.00;;;;;;;30.38;29.94;95209.81;5065710;28;20037;-64
2021/08/23 09:52:30;;;;;;;7.43;4.30;;;;;;;30.49;29.82;95207.38;5066607;28;20040;-65
2021/08/23 09:55:06;;;;;;;6.20;3.80;;;;;;;30.87;28.23;95205.88;5067096;28;20042;-65
2021/08/23 09:57:34;;;;;;;5.45;3.42;;;;;;;30.76;28.21;95196.81;5066337;28;20044;-65
2021/08/23 10:00:03;;;;;;;4.13;3.72;;;;;;;30.57;28.15;95192.94;5066527;28;20033;-64
2021/08/23 10:02:45;;;;;;;5.78;4.35;;;;;;;30.96;29.79;95198.41;5066659;28;20052;-65
2021/08/23 10:05:19;;;;;;;4.53;4.07;;;;;;;31.16;27.38;95184.97;5066680;28;20425;-66
2021/08/23 10:07:47;;;;;;;8.07;3.92;;;;;;;31.06;29.15;95197.84;5066823;28;20037;-66
2021/08/23 10:10:18;;;;;;;4.82;4.10;;;;;;;31.24;28.14;95197.41;5065919;28;20127;-65
2021/08/23 10:12:45;;;;;;;5.57;4.25;;;;;;;31.24;27.94;95192.03;5066655;28;20044;-65
2021/08/23 10:15:13;;;;;;;6.05;4.80;;;;;;;31.40;28.48;95184.69;5066549;28;20044;-66
2021/08/23 10:17:41;;;;;;;10.13;3.97;;;;;;;31.87;27.20;95187.41;5066498;28;20064;-66
2021/08/23 10:20:10;;;;;;;8.18;4.15;;;;;;;32.03;29.01;95185.38;5066376;28;20040;-66
2021/08/23 10:22:40;;;;;;;9.35;3.90;;;;;;;31.94;27.17;95179.47;5065899;28;20048;-66
2021/08/23 10:25:09;;;;;;;7.15;3.83;;;;;;;32.22;28.12;95173.00;5048168;28;20137;-66
2021/08/23 10:27:40;;;;;;;5.07;3.97;;;;;;;32.51;26.29;95172.28;5066820;28;20041;-67
2021/08/23 10:30:19;;;;;;;5.32;3.55;;;;;;;31.87;26.73;95163.19;5060364;28;20040;-66
2021/08/23 10:32:46;;;;;;;8.10;3.88;;;;;;;32.32;25.82;95166.97;5065239;28;20048;-66
2021/08/23 10:35:24;;;;;;;4.57;3.55;;;;;;;32.81;24.69;95176.94;5064632;28;20044;-67
2021/08/23 10:37:53;;;;;;;5.65;3.08;;;;;;;32.72;25.62;95176.44;5046673;28;20052;-66
2021/08/23 10:40:33;;;;;;;13.05;3.85;;;;;;;32.45;25.07;95171.03;5064818;28;20404;-66
2021/08/23 10:43:12;;;;;;;4.30;3.70;;;;;;;32.50;24.08;95178.81;5065320;28;20043;-66
2021/08/23 10:45:39;;;;;;;6.20;3.35;;;;;;;32.75;24.07;95163.00;5063356;28;20048;-66
2021/08/23 10:48:17;;;;;;;5.93;3.47;;;;;;;32.73;24.61;95164.50;5065371;28;20488;-65
2021/08/23 10:50:58;;;;;;;6.80;4.03;;;;;;;32.45;23.98;95160.25;5064237;28;20055;-66
2021/08/23 10:53:33;;;;;;;6.18;4.38;;;;;;;32.78;23.36;95160.72;5064801;28;20044;-65
2021/08/23 10:56:21;;;;;;;4.43;3.13;;;;;;;32.94;22.89;95148.59;5063937;28;20055;-66
2021/08/23 10:58:51;;;;;;;7.85;3.25;;;;;;;32.71;23.53;95151.38;5065836;28;20489;-66
2021/08/23 11:01:21;;;;;;;4.80;3.28;;;;;;;32.57;24.71;95157.34;5065751;28;20056;-66
2021/08/23 11:04:00;;;;;;;6.07;3.88;;;;;;;32.84;22.27;95149.22;5064541;28;20056;-66
2021/08/23 11:06:26;;;;;;;3.80;3.40;;;;;;;33.42;23.66;95136.38;5065652;28;20111;-66
2021/08/23 11:09:11;;;;;;;6.43;3.50;;;;;;;33.36;23.80;95129.78;5065717;28;20044;-66
2021/08/23 11:11:40;;;;;;;7.18;3.67;;;;;;;33.18;24.12;95138.47;5064092;28;20391;-66
2021/08/23 11:14:21;;;;;;;4.72;4.15;;;;;;;33.53;22.92;95118.38;5065064;28;20036;-66
2021/08/23 11:16:54;;;;;;;6.45;3.38;;;;;;;34.14;22.81;95134.31;5065482;28;20044;-65
2021/08/23 11:19:22;;;;;;;5.88;3.10;;;;;;;34.26;22.57;95120.53;5046284;28;20059;-66
2021/08/23 11:21:56;;;;;;;6.70;3.28;;;;;;;33.63;22.20;95133.88;5065670;28;20047;-66
2021/08/23 11:24:30;;;;;;;3.95;2.95;;;;;;;33.72;22.07;95131.69;5069639;28;20059;-65
2021/08/23 11:27:00;;;;;;;4.55;3.25;;;;;;;33.87;22.59;95126.41;5069816;28;20037;-65
2021/08/23 11:29:49;;;;;;;4.70;3.35;;;;;;;34.12;20.52;95125.81;5069578;28;20052;-66
2021/08/23 11:32:16;;;;;;;6.00;3.40;;;;;;;34.31;21.87;95128.28;5069629;28;22043;-66
2021/08/23 11:34:51;;;;;;;4.28;3.53;;;;;;;34.91;20.40;95118.94;5068161;28;20044;-67
2021/08/23 11:37:22;;;;;;;11.38;3.58;;;;;;;35.37;19.98;95109.44;5069782;28;20052;-64